Time;durP1;ratioP1;P1;durP2;ratioP2;P2;SDS_P1;SDS_P2;PMS_P1;PMS_P2;Temp;Humidity;BMP_temperature;BMP_pressure;BME280_temperature;BME280_humidity;BME280_pressure;Samples;Min_cycle;Max_cycle;Signal;HPM_P1;HPM_P2
2021/05/23 00:00:43;;;;;;;2.50;1.30;;;;;;;10.66;100.00;100419.69;5126635;27;20031;-74
2021/05/23 00:03:12;;;;;;;4.30;1.70;;;;;;;10.58;100.00;100417.53;5106351;28;20109;-74
2021/05/23 00:05:39;;;;;;;5.22;1.40;;;;;;;10.58;100.00;100416.66;5103542;28;20035;-74
2021/05/23 00:08:14;;;;;;;5.10;1.50;;;;;;;10.54;100.00;100416.91;5105668;28;20031;-74
2021/05/23 00:10:51;;;;;;;5.10;1.40;;;;;;;10.49;100.00;100412.81;5126511;28;20114;-74
2021/05/23 00:13:20;;;;;;;4.68;1.48;;;;;;;10.48;100.00;100422.69;5122376;28;20213;-74
2021/05/23 00:15:59;;;;;;;4.82;1.67;;;;;;;10.48;100.00;100417.31;5110899;28;20100;-74
2021/05/23 00:18:27;;;;;;;3.13;1.58;;;;;;;10.49;100.00;100418.19;5092841;28;20185;-74
2021/05/23 00:20:53;;;;;;;3.53;1.70;;;;;;;10.49;100.00;100424.38;5124804;28;20027;-73
2021/05/23 00:23:19;;;;;;;2.58;1.45;;;;;;;10.47;100.00;100420.09;5111706;28;20031;-74
2021/05/23 00:25:45;;;;;;;3.83;1.55;;;;;;;10.52;100.00;100421.50;5127251;28;20019;-74
2021/05/23 00:28:11;;;;;;;6.78;1.90;;;;;;;10.49;100.00;100419.00;5106895;28;20058;-74
2021/05/23 00:30:38;;;;;;;4.35;1.75;;;;;;;10.50;100.00;100419.88;5109779;28;20565;-74
2021/05/23 00:33:05;;;;;;;5.78;1.95;;;;;;;10.46;100.00;100419.22;5121353;27;20031;-74
2021/05/23 00:35:31;;;;;;;4.82;1.90;;;;;;;10.47;100.00;100415.59;5110933;28;20373;-74
2021/05/23 00:37:57;;;;;;;4.88;2.15;;;;;;;10.44;100.00;100422.97;5093970;27;20020;-74
2021/05/23 00:40:22;;;;;;;3.60;1.73;;;;;;;10.42;100.00;100420.41;5108957;28;20601;-73
2021/05/23 00:42:48;;;;;;;6.13;2.00;;;;;;;10.43;100.00;100427.47;5125171;27;20026;-74
2021/05/23 00:45:16;;;;;;;4.00;2.03;;;;;;;10.46;100.00;100429.09;5106088;28;20530;-74
2021/05/23 00:47:42;;;;;;;6.05;1.70;;;;;;;10.45;100.00;100428.25;5093126;28;20035;-74
2021/05/23 00:50:09;;;;;;;8.07;2.00;;;;;;;10.47;100.00;100428.16;5126799;28;20038;-74
2021/05/23 00:52:35;;;;;;;7.15;2.55;;;;;;;10.44;100.00;100429.22;5125422;27;20031;-74
2021/05/23 00:55:01;;;;;;;2.85;1.60;;;;;;;10.50;100.00;100435.97;5125003;27;20042;-74
2021/05/23 00:57:27;;;;;;;3.10;1.80;;;;;;;10.46;100.00;100435.34;5117738;28;20038;-74
2021/05/23 01:02:42;;;;;;;4.15;1.88;;;;;;;10.43;100.00;100430.16;5016910;28;20049;-71
2021/05/23 01:05:09;;;;;;;5.28;1.65;;;;;;;10.41;100.00;100434.78;5021754;28;20037;-71
2021/05/23 01:07:35;;;;;;;6.22;1.80;;;;;;;10.42;100.00;100433.84;5023583;28;20022;-73
2021/05/23 01:10:09;;;;;;;4.25;1.88;;;;;;;10.47;100.00;100433.50;5019775;28;20606;-74
2021/05/23 01:12:49;;;;;;;7.85;2.05;;;;;;;10.45;100.00;100438.97;5028734;28;20061;-73
2021/05/23 01:15:15;;;;;;;7.05;3.13;;;;;;;10.39;100.00;100436.72;5042385;28;20549;-73
2021/05/23 01:17:45;;;;;;;4.68;1.80;;;;;;;10.44;100.00;100445.31;5027994;28;20595;-73
2021/05/23 01:20:25;;;;;;;2.70;1.70;;;;;;;10.43;100.00;100435.53;5029111;28;20117;-73
2021/05/23 01:23:18;;;;;;;5.47;2.28;;;;;;;10.41;100.00;100439.31;5028490;28;20485;-73
2021/05/23 01:25:46;;;;;;;4.45;1.92;;;;;;;10.35;100.00;100440.56;5037296;28;20035;-73
2021/05/23 01:28:12;;;;;;;5.68;2.25;;;;;;;10.34;100.00;100446.91;5030217;28;20355;-73
2021/05/23 01:30:44;;;;;;;4.88;2.05;;;;;;;10.35;100.00;100442.41;5023685;28;20707;-74
2021/05/23 01:33:15;;;;;;;4.50;2.55;;;;;;;10.48;100.00;100449.53;5026660;28;20397;-73
2021/05/23 01:35:46;;;;;;;4.32;2.00;;;;;;;10.57;100.00;100450.69;5028484;28;20112;-73
2021/05/23 01:38:15;;;;;;;5.35;3.05;;;;;;;10.46;100.00;100446.06;5027824;28;20061;-73
2021/05/23 01:40:42;;;;;;;6.57;2.08;;;;;;;10.38;100.00;100448.41;5029646;28;20108;-74
2021/05/23 01:43:09;;;;;;;6.35;2.60;;;;;;;10.48;100.00;100446.84;5027366;28;20549;-73
2021/05/23 01:45:34;;;;;;;4.82;2.47;;;;;;;10.38;100.00;100448.41;5027630;28;20491;-73
2021/05/23 01:48:02;;;;;;;4.72;2.30;;;;;;;10.41;100.00;100440.16;5027725;28;20045;-73
2021/05/23 01:50:27;;;;;;;5.25;2.28;;;;;;;10.31;100.00;100447.09;5027788;28;20462;-73
2021/05/23 01:52:56;;;;;;;7.30;2.65;;;;;;;10.39;100.00;100444.75;5027658;28;20056;-72
2021/05/23 01:55:22;;;;;;;5.18;2.50;;;;;;;10.37;100.00;100449.38;5027211;28;20033;-73
2021/05/23 01:57:49;;;;;;;6.55;3.15;;;;;;;10.38;100.00;100453.78;5027432;28;20398;-73
2021/05/23 02:00:18;;;;;;;7.70;2.70;;;;;;;10.39;100.00;100446.59;5030096;28;20076;-74
2021/05/23 02:02:44;;;;;;;8.98;3.42;;;;;;;10.28;100.00;100450.00;5044749;28;20051;-73
2021/05/23 02:05:10;;;;;;;5.63;3.05;;;;;;;10.23;100.00;100448.59;5031924;28;20067;-73
2021/05/23 02:07:37;;;;;;;6.25;3.42;;;;;;;10.33;100.00;100452.38;5048624;28;20036;-72
2021/05/23 02:10:10;;;;;;;7.88;4.18;;;;;;;10.23;100.00;100448.59;5049187;28;20505;-74
2021/05/23 02:12:35;;;;;;;9.50;3.63;;;;;;;10.25;100.00;100452.00;5032878;28;20469;-74
2021/05/23 02:15:04;;;;;;;8.00;3.92;;;;;;;10.25;100.00;100455.56;5049794;28;20090;-73
2021/05/23 02:17:34;;;;;;;6.28;4.13;;;;;;;10.27;100.00;100461.69;5052554;28;20056;-74
2021/05/23 02:19:59;;;;;;;7.35;4.40;;;;;;;10.35;100.00;100454.00;5051565;28;20024;-74
2021/05/23 02:22:25;;;;;;;7.57;3.75;;;;;;;10.34;100.00;100457.63;5052998;28;20029;-73
2021/05/23 02:24:50;;;;;;;5.70;4.05;;;;;;;10.24;100.00;100461.03;5050737;28;20052;-73
2021/05/23 02:27:15;;;;;;;8.07;4.95;;;;;;;10.33;100.00;100455.91;5045778;28;20078;-74
2021/05/23 02:29:41;;;;;;;8.88;4.82;;;;;;;10.33;100.00;100455.91;5048439;28;20072;-73
2021/05/23 02:32:07;;;;;;;6.70;4.90;;;;;;;10.33;100.00;100450.53;5052051;28;20041;-74
2021/05/23 02:34:43;;;;;;;7.72;5.10;;;;;;;10.39;100.00;100455.50;5048686;28;20027;-74
2021/05/23 02:37:09;;;;;;;9.57;5.15;;;;;;;10.29;100.00;100454.41;5046569;28;20036;-73
2021/05/23 02:39:35;;;;;;;10.25;6.07;;;;;;;10.30;100.00;100458.81;5048514;28;20037;-74
2021/05/23 02:42:00;;;;;;;8.60;5.57;;;;;;;10.20;100.00;100460.38;5013641;28;20033;-74
2021/05/23 02:44:26;;;;;;;9.43;5.57;;;;;;;10.22;100.00;100473.69;5049193;28;20036;-74
2021/05/23 02:46:51;;;;;;;7.63;5.13;;;;;;;10.33;100.00;100466.63;5029790;28;20029;-74
2021/05/23 02:49:17;;;;;;;7.68;5.65;;;;;;;10.33;100.00;100471.16;5044023;28;20037;-75
2021/05/23 02:51:42;;;;;;;7.50;5.25;;;;;;;10.33;100.00;100472.00;5044729;28;20047;-73
2021/05/23 02:54:08;;;;;;;10.07;5.13;;;;;;;10.38;100.00;100475.22;5047099;28;20036;-74
2021/05/23 02:56:34;;;;;;;8.80;5.03;;;;;;;10.36;100.00;100474.50;5028623;28;20021;-75
2021/05/23 02:59:00;;;;;;;9.98;5.60;;;;;;;10.33;100.00;100481.88;5045595;28;20029;-74
2021/05/23 03:01:26;;;;;;;13.75;5.55;;;;;;;10.35;100.00;100475.47;5047015;28;20028;-74
2021/05/23 03:03:51;;;;;;;13.27;7.38;;;;;;;10.33;100.00;100487.25;5052227;28;20220;-74
2021/05/23 03:06:16;;;;;;;11.63;6.85;;;;;;;10.28;100.00;100479.50;5051199;28;20021;-75
2021/05/23 03:08:42;;;;;;;11.57;6.32;;;;;;;10.45;100.00;100487.28;5047437;28;20091;-74
2021/05/23 03:11:07;;;;;;;10.13;6.93;;;;;;;10.35;100.00;100488.88;5034383;28;20041;-73
2021/05/23 03:13:33;;;;;;;12.63;6.75;;;;;;;10.37;100.00;100494.13;5031340;28;20027;-74
2021/05/23 03:15:58;;;;;;;10.75;6.85;;;;;;;10.30;100.00;100488.31;5056115;28;20116;-73
2021/05/23 03:18:23;;;;;;;11.98;7.45;;;;;;;10.33;100.00;100496.16;5047478;28;20045;-72
2021/05/23 03:20:49;;;;;;;10.90;7.82;;;;;;;10.40;100.00;100499.28;5030043;28;20112;-74
2021/05/23 03:23:15;;;;;;;14.18;8.70;;;;;;;10.31;100.00;100503.44;5042582;28;20108;-73
2021/05/23 03:25:41;;;;;;;13.30;7.95;;;;;;;10.26;100.00;100502.88;5055447;28;20036;-74
2021/05/23 03:28:07;;;;;;;16.83;8.90;;;;;;;10.33;100.00;100508.69;5029626;28;20450;-74
2021/05/23 03:30:36;;;;;;;13.00;8.60;;;;;;;10.44;100.00;100501.66;5051382;28;20111;-75
2021/05/23 03:33:01;;;;;;;14.95;9.15;;;;;;;10.41;100.00;100512.59;5051675;28;20044;-74
2021/05/23 03:35:27;;;;;;;17.95;9.63;;;;;;;10.39;100.00;100513.66;5029215;28;20246;-74
2021/05/23 03:37:53;;;;;;;18.73;10.18;;;;;;;10.39;100.00;100514.53;5049303;28;20060;-74
2021/05/23 03:40:19;;;;;;;15.10;10.20;;;;;;;10.41;100.00;100517.97;5048069;28;20025;-75
2021/05/23 03:42:47;;;;;;;17.15;11.00;;;;;;;10.35;100.00;100521.06;5033262;28;20037;-74
2021/05/23 03:45:14;;;;;;;18.48;10.35;;;;;;;10.31;100.00;100522.22;5030168;28;20441;-74
2021/05/23 03:47:40;;;;;;;18.67;11.00;;;;;;;10.32;100.00;100523.94;5046747;28;20104;-73
2021/05/23 03:50:08;;;;;;;20.02;11.63;;;;;;;10.35;100.00;100523.75;5054417;28;20120;-74
2021/05/23 03:52:33;;;;;;;20.13;10.77;;;;;;;10.40;100.00;100529.66;5043576;28;20031;-75
2021/05/23 03:54:59;;;;;;;17.42;10.18;;;;;;;10.40;100.00;100532.34;5029058;28;20499;-74
2021/05/23 03:57:24;;;;;;;15.80;11.15;;;;;;;10.42;100.00;100535.78;5032355;28;20089;-73
2021/05/23 03:59:50;;;;;;;19.30;10.88;;;;;;;10.40;100.00;100532.34;5047524;28;20480;-74
2021/05/23 04:02:15;;;;;;;15.82;11.10;;;;;;;10.35;100.00;100542.53;5047674;28;20114;-75
2021/05/23 04:04:56;;;;;;;16.83;11.07;;;;;;;10.47;100.00;100538.16;5035903;28;20623;-75
2021/05/23 04:07:24;;;;;;;17.50;11.05;;;;;;;10.45;100.00;100540.94;5045278;28;20029;-74
2021/05/23 04:09:51;;;;;;;19.13;11.50;;;;;;;10.43;100.00;100550.91;5011114;28;20252;-75
2021/05/23 04:13:02;;;;;;;16.45;10.75;;;;;;;10.44;100.00;100552.63;5026774;28;20025;-75
2021/05/23 04:15:04;;;;;;;18.75;11.23;;;;;;;10.36;100.00;100552.31;5027194;28;20119;-75
2021/05/23 04:17:29;;;;;;;20.02;12.05;;;;;;;10.50;100.00;100554.03;5026822;28;20041;-73
2021/05/23 04:19:55;;;;;;;19.88;11.65;;;;;;;10.59;100.00;100558.81;5031237;28;20034;-75
2021/05/23 04:22:20;;;;;;;19.45;11.77;;;;;;;10.44;100.00;100560.69;5046181;28;20068;-74
2021/05/23 04:24:46;;;;;;;17.85;11.88;;;;;;;10.52;100.00;100563.72;5028245;28;20078;-75
2021/05/23 04:27:11;;;;;;;19.90;12.07;;;;;;;10.40;100.00;100564.53;5050747;28;20373;-74
2021/05/23 04:29:37;;;;;;;20.60;12.15;;;;;;;10.50;100.00;100562.97;5016316;28;20048;-74
2021/05/23 04:32:05;;;;;;;20.85;12.57;;;;;;;10.43;100.00;100569.69;5047800;28;20404;-73
2021/05/23 04:34:30;;;;;;;23.50;12.90;;;;;;;10.45;100.00;100573.16;5031698;28;20295;-74
2021/05/23 04:36:56;;;;;;;23.58;12.70;;;;;;;10.50;100.00;100571.00;5045314;28;20044;-74
2021/05/23 04:39:22;;;;;;;23.83;13.07;;;;;;;10.41;100.00;100582.38;5051805;28;20033;-74
2021/05/23 04:41:48;;;;;;;23.48;13.00;;;;;;;10.40;100.00;100580.63;5052531;28;20031;-73
2021/05/23 04:44:13;;;;;;;21.95;12.02;;;;;;;10.44;100.00;100587.50;5034731;28;20104;-74
2021/05/23 04:46:39;;;;;;;21.27;11.68;;;;;;;10.44;100.00;100592.88;5048738;28;20083;-74
2021/05/23 04:49:04;;;;;;;21.20;11.50;;;;;;;10.47;100.00;100595.38;5031921;28;20048;-74
2021/05/23 04:51:30;;;;;;;18.65;11.77;;;;;;;10.55;100.00;100595.72;5031454;28;20029;-75
2021/05/23 04:53:55;;;;;;;19.70;10.77;;;;;;;10.57;100.00;100600.13;5056412;28;20074;-75
2021/05/23 04:56:21;;;;;;;20.58;12.05;;;;;;;10.59;100.00;100595.53;5048644;28;20041;-75
2021/05/23 04:58:47;;;;;;;18.77;11.20;;;;;;;10.52;100.00;100603.97;5029888;28;20146;-73
2021/05/23 05:01:12;;;;;;;17.02;11.00;;;;;;;10.57;100.00;100610.84;5033825;28;20260;-75
2021/05/23 05:03:38;;;;;;;20.08;10.82;;;;;;;10.59;100.00;100611.63;5049832;28;20503;-75
2021/05/23 05:06:03;;;;;;;24.75;10.07;;;;;;;10.54;100.00;100615.50;5053475;28;20067;-74
2021/05/23 05:08:29;;;;;;;13.48;9.52;;;;;;;10.60;100.00;100616.91;5051194;28;20029;-75
2021/05/23 05:10:54;;;;;;;16.70;9.30;;;;;;;10.55;100.00;100627.91;5047964;28;20028;-75
2021/05/23 05:13:20;;;;;;;15.77;8.55;;;;;;;10.57;100.00;100619.78;5052043;28;20033;-75
2021/05/23 05:15:45;;;;;;;15.80;7.53;;;;;;;10.46;100.00;100627.69;5056939;28;20036;-74
2021/05/23 05:18:11;;;;;;;13.95;7.32;;;;;;;10.43;100.00;100631.41;5049453;28;20090;-75
2021/05/23 05:20:36;;;;;;;8.60;6.25;;;;;;;10.53;100.00;100631.69;5035416;28;20055;-75
2021/05/23 05:23:02;;;;;;;16.00;5.07;;;;;;;10.55;100.00;100638.66;5015440;28;20068;-74
2021/05/23 05:25:28;;;;;;;10.13;5.30;;;;;;;10.52;100.00;100638.88;5031818;28;20417;-75
2021/05/23 05:27:53;;;;;;;12.23;4.47;;;;;;;10.49;100.00;100636.38;5034169;28;20443;-74
2021/05/23 05:30:19;;;;;;;11.38;3.40;;;;;;;10.43;100.00;100642.13;5033698;28;20040;-74
2021/05/23 05:32:45;;;;;;;5.90;3.15;;;;;;;10.38;100.00;100646.94;5016389;28;20029;-75
2021/05/23 05:35:11;;;;;;;14.18;3.80;;;;;;;10.33;100.00;100653.56;5036096;28;20043;-74
2021/05/23 05:37:36;;;;;;;9.05;3.65;;;;;;;10.35;100.00;100641.78;5040463;28;20378;-75
2021/05/23 05:40:03;;;;;;;10.65;3.10;;;;;;;10.28;100.00;100650.31;5032595;28;20037;-74
2021/05/23 05:42:29;;;;;;;12.50;3.30;;;;;;;10.33;100.00;100649.06;5046027;28;20025;-74
2021/05/23 05:44:55;;;;;;;13.68;3.25;;;;;;;10.40;100.00;100646.84;5032348;28;20080;-74
2021/05/23 05:47:20;;;;;;;9.13;3.75;;;;;;;10.37;100.00;100655.94;5056613;28;20048;-75
2021/05/23 05:49:45;;;;;;;9.55;3.50;;;;;;;10.38;100.00;100654.13;5029794;28;20485;-75
2021/05/23 05:52:11;;;;;;;12.32;4.32;;;;;;;10.48;100.00;100653.47;5050743;28;20040;-74
2021/05/23 05:54:36;;;;;;;6.53;3.95;;;;;;;10.50;100.00;100654.19;5049612;28;20029;-73
2021/05/23 05:57:02;;;;;;;10.88;3.85;;;;;;;10.49;100.00;100659.69;5032302;28;20146;-74
2021/05/23 05:59:27;;;;;;;12.25;4.32;;;;;;;10.44;100.00;100668.00;5048538;28;20021;-74
2021/05/23 06:01:52;;;;;;;14.50;4.53;;;;;;;10.45;100.00;100669.75;5046905;28;20886;-75
2021/05/23 06:04:18;;;;;;;8.52;4.15;;;;;;;10.53;100.00;100678.19;5049554;28;20378;-76
2021/05/23 06:06:43;;;;;;;8.68;3.92;;;;;;;10.50;100.00;100672.97;5051860;28;20539;-74
2021/05/23 06:09:09;;;;;;;19.35;4.45;;;;;;;10.59;100.00;100670.69;5014034;28;20120;-74
2021/05/23 06:11:34;;;;;;;10.93;5.25;;;;;;;10.50;100.00;100672.97;5029895;28;20111;-74
2021/05/23 06:14:00;;;;;;;10.02;3.70;;;;;;;10.53;100.00;100678.19;5032483;28;20040;-75
2021/05/23 06:16:25;;;;;;;9.85;3.83;;;;;;;10.64;100.00;100677.47;5037997;28;20429;-74
2021/05/23 06:18:51;;;;;;;12.23;3.92;;;;;;;10.73;100.00;100678.69;5050533;28;20037;-75
2021/05/23 06:21:16;;;;;;;13.45;4.70;;;;;;;10.86;100.00;100682.31;5049091;28;20021;-74
2021/05/23 06:23:42;;;;;;;8.73;3.75;;;;;;;10.97;100.00;100687.81;5032851;28;20494;-73
2021/05/23 06:26:13;;;;;;;10.57;3.33;;;;;;;10.91;100.00;100698.97;5031379;28;20099;-73
2021/05/23 06:28:39;;;;;;;11.73;4.72;;;;;;;10.92;100.00;100693.47;5031516;28;20057;-75
2021/05/23 06:31:04;;;;;;;13.18;4.05;;;;;;;11.28;100.00;100702.75;5038988;28;20040;-74
2021/05/23 06:33:30;;;;;;;9.43;3.40;;;;;;;11.96;100.00;100703.41;5047716;28;20036;-75
2021/05/23 06:35:56;;;;;;;13.95;3.53;;;;;;;12.52;100.00;100703.88;5032569;28;20029;-75
2021/05/23 06:38:21;;;;;;;17.25;3.55;;;;;;;13.07;95.78;100705.19;5033621;28;20662;-75
2021/05/23 06:40:47;;;;;;;9.20;2.72;;;;;;;13.38;92.81;100720.81;5043992;28;20341;-75
2021/05/23 06:43:12;;;;;;;13.27;3.22;;;;;;;13.72;88.60;100727.16;5032773;28;20029;-76
2021/05/23 06:45:38;;;;;;;15.25;2.78;;;;;;;13.81;87.51;100731.00;5026918;28;20033;-76
2021/05/23 06:48:03;;;;;;;8.63;1.95;;;;;;;14.06;88.00;100736.22;5046290;28;20396;-73
2021/05/23 06:50:29;;;;;;;9.65;2.50;;;;;;;14.42;83.35;100741.41;5031835;28;20033;-75
2021/05/23 06:52:54;;;;;;;11.68;2.72;;;;;;;14.52;82.97;100747.78;5037944;28;20107;-76
2021/05/23 06:55:20;;;;;;;7.07;1.90;;;;;;;14.62;77.90;100753.34;5010380;28;20033;-75
2021/05/23 06:57:45;;;;;;;11.00;1.95;;;;;;;14.50;78.00;100751.63;5049744;28;20064;-73
2021/05/23 07:00:11;;;;;;;16.77;2.95;;;;;;;14.48;78.22;100746.34;5032116;28;20041;-74
2021/05/23 07:02:38;;;;;;;5.53;1.42;;;;;;;14.06;80.49;100753.25;5043745;28;20562;-75
2021/05/23 07:05:03;;;;;;;8.27;2.00;;;;;;;14.32;78.53;100756.59;5049023;28;20037;-75
2021/05/23 07:07:29;;;;;;;22.17;3.10;;;;;;;14.49;79.96;100761.56;5049131;28;20122;-71
2021/05/23 07:09:54;;;;;;;18.25;2.30;;;;;;;14.54;78.21;100759.34;5028878;28;20033;-73
2021/05/23 07:12:20;;;;;;;14.10;3.38;;;;;;;14.64;76.37;100764.00;5049179;28;20499;-73
2021/05/23 07:14:45;;;;;;;8.82;2.30;;;;;;;14.35;77.04;100761.75;5047058;28;20032;-72
2021/05/23 07:17:11;;;;;;;7.70;1.92;;;;;;;14.71;73.63;100766.09;5059695;28;20029;-72
2021/05/23 07:19:36;;;;;;;15.30;2.28;;;;;;;15.13;71.03;100772.53;5047369;28;20036;-72
2021/05/23 07:22:02;;;;;;;8.23;1.77;;;;;;;15.10;72.47;100769.22;5046796;28;20074;-72
2021/05/23 07:24:27;;;;;;;14.88;2.60;;;;;;;15.44;72.98;100775.38;5033579;28;20077;-72
2021/05/23 07:26:53;;;;;;;7.03;1.55;;;;;;;15.16;69.55;100780.41;5029252;28;20394;-72
2021/05/23 07:29:18;;;;;;;10.23;1.58;;;;;;;15.47;67.95;100785.97;5044640;28;20114;-74
2021/05/23 07:31:43;;;;;;;5.28;1.60;;;;;;;14.88;66.95;100784.50;5045032;28;20105;-74
2021/05/23 07:34:09;;;;;;;9.52;1.60;;;;;;;14.78;68.08;100782.66;5029717;28;20036;-74
2021/05/23 07:36:34;;;;;;;7.00;1.60;;;;;;;14.11;68.75;100794.25;5029814;28;20580;-74
2021/05/23 07:39:00;;;;;;;12.18;2.53;;;;;;;14.03;70.40;100787.72;5046863;28;20521;-72
2021/05/23 07:41:25;;;;;;;10.30;1.40;;;;;;;13.89;70.57;100779.81;5049499;28;20071;-73
2021/05/23 07:43:51;;;;;;;7.07;0.90;;;;;;;14.39;69.76;100784.84;5033930;28;20037;-74
2021/05/23 07:46:17;;;;;;;10.63;1.65;;;;;;;15.25;65.37;100790.44;5045905;28;20740;-75
2021/05/23 07:48:42;;;;;;;7.30;1.48;;;;;;;15.70;64.93;100796.59;5048092;28;20160;-74
2021/05/23 07:51:08;;;;;;;6.72;1.30;;;;;;;16.39;64.09;100798.81;5031018;28;20033;-74
2021/05/23 07:53:33;;;;;;;5.65;1.30;;;;;;;16.92;59.75;100807.63;5031556;28;20021;-74
2021/05/23 07:55:59;;;;;;;6.60;1.20;;;;;;;16.65;58.94;100818.25;5033727;28;20028;-74
2021/05/23 07:58:24;;;;;;;9.88;1.33;;;;;;;17.02;60.74;100813.97;5035774;28;20029;-74
2021/05/23 08:00:50;;;;;;;5.90;1.08;;;;;;;17.26;59.15;100811.75;5047784;28;20517;-75
2021/05/23 08:03:16;;;;;;;6.60;1.20;;;;;;;16.91;58.41;100825.75;5045886;28;20509;-74
2021/05/23 08:05:41;;;;;;;5.55;1.30;;;;;;;17.17;58.07;100812.56;5028272;28;20082;-74
2021/05/23 08:08:07;;;;;;;8.20;2.30;;;;;;;17.56;57.70;100818.94;5029121;28;20045;-74
2021/05/23 08:10:33;;;;;;;6.32;1.00;;;;;;;17.28;58.16;100823.31;5049234;28;20037;-75
2021/05/23 08:12:58;;;;;;;9.05;1.80;;;;;;;16.63;58.21;100834.63;5027287;28;20481;-75
2021/05/23 08:15:24;;;;;;;10.13;1.42;;;;;;;16.40;58.79;100833.03;5030494;28;20040;-72
2021/05/23 08:17:53;;;;;;;7.43;1.77;;;;;;;16.91;58.57;100833.88;5045924;28;20033;-71
2021/05/23 08:20:19;;;;;;;14.60;1.85;;;;;;;16.36;56.30;100842.41;5042555;28;20044;-73
2021/05/23 08:22:44;;;;;;;6.15;1.20;;;;;;;16.13;56.67;100834.41;5041710;28;20028;-72
2021/05/23 08:25:10;;;;;;;4.50;1.08;;;;;;;15.95;55.22;100830.56;5049537;28;20021;-73
2021/05/23 08:27:36;;;;;;;5.75;1.17;;;;;;;15.99;56.87;100828.44;5022457;28;20413;-73
2021/05/23 08:30:02;;;;;;;7.20;1.10;;;;;;;15.77;55.32;100842.94;5046646;28;20116;-74
2021/05/23 08:32:28;;;;;;;6.70;1.10;;;;;;;15.77;55.43;100841.13;5028992;28;20033;-72
2021/05/23 08:34:53;;;;;;;5.00;1.10;;;;;;;15.21;55.48;100834.97;5038792;28;20035;-74
2021/05/23 08:37:19;;;;;;;7.35;1.10;;;;;;;15.49;56.60;100848.94;5042630;28;20112;-71
2021/05/23 08:39:45;;;;;;;3.60;0.73;;;;;;;15.75;54.65;100832.25;5033209;28;20507;-72
2021/05/23 08:42:10;;;;;;;8.43;1.45;;;;;;;16.32;52.69;100846.38;5029681;28;20555;-74
2021/05/23 08:44:37;;;;;;;4.45;1.00;;;;;;;16.84;52.85;100859.84;5046690;28;20031;-73
2021/05/23 08:47:03;;;;;;;14.15;1.25;;;;;;;17.38;49.11;100843.19;5029251;28;20592;-73
2021/05/23 08:49:29;;;;;;;6.63;1.13;;;;;;;17.78;50.68;100856.72;5046441;28;20033;-73
2021/05/23 08:51:55;;;;;;;5.82;1.33;;;;;;;18.00;47.99;100858.31;5022481;28;20037;-74
2021/05/23 08:54:21;;;;;;;9.88;1.08;;;;;;;18.36;45.65;100851.28;5030026;28;20369;-74
2021/05/23 08:56:49;;;;;;;6.53;1.05;;;;;;;18.59;47.17;100866.28;5009768;28;20035;-74
2021/05/23 08:59:15;;;;;;;8.73;1.30;;;;;;;18.29;48.61;100877.31;5028392;28;20116;-71
2021/05/23 09:01:42;;;;;;;9.32;1.15;;;;;;;17.67;47.34;100875.84;5046411;28;20029;-72
2021/05/23 09:04:09;;;;;;;6.68;1.27;;;;;;;16.84;50.62;100883.41;5046710;28;20493;-73
2021/05/23 09:06:38;;;;;;;4.00;0.90;;;;;;;16.70;50.81;100873.75;5028399;28;20713;-72
2021/05/23 09:09:07;;;;;;;3.42;1.02;;;;;;;16.47;50.63;100885.72;5048394;28;20116;-72
2021/05/23 09:11:34;;;;;;;6.55;0.90;;;;;;;16.03;53.27;100871.41;5050447;28;20025;-73
2021/05/23 09:14:00;;;;;;;9.63;1.40;;;;;;;15.97;52.19;100884.59;5028361;28;20392;-71
2021/05/23 09:16:35;;;;;;;10.43;1.30;;;;;;;16.06;54.69;100884.66;5026528;28;20021;-73
2021/05/23 09:19:00;;;;;;;5.30;0.80;;;;;;;15.84;53.71;100883.91;5026312;28;20037;-73
2021/05/23 09:21:30;;;;;;;8.50;1.25;;;;;;;15.43;52.50;100884.59;5044139;28;20154;-73
2021/05/23 09:24:04;;;;;;;9.80;2.17;;;;;;;15.20;54.09;100890.03;5033461;28;20568;-73
2021/05/23 09:26:33;;;;;;;10.02;1.65;;;;;;;14.81;55.03;100890.53;5044860;28;20030;-73
2021/05/23 09:29:07;;;;;;;6.25;1.65;;;;;;;14.66;56.35;100894.41;5031456;28;20055;-74
2021/05/23 09:31:33;;;;;;;6.63;1.20;;;;;;;14.74;57.15;100913.59;5049663;28;20033;-74
2021/05/23 09:33:59;;;;;;;6.60;1.48;;;;;;;14.77;55.79;100898.00;5031560;28;20032;-74
2021/05/23 09:36:25;;;;;;;9.32;1.50;;;;;;;15.35;57.55;100905.03;5035765;28;20009;-73
2021/05/23 09:38:52;;;;;;;9.52;1.17;;;;;;;16.34;55.53;100909.41;5048813;28;20552;-74
2021/05/23 09:41:19;;;;;;;5.95;1.02;;;;;;;16.92;52.45;100905.25;5050035;28;20082;-74
2021/05/23 09:43:45;;;;;;;3.60;0.60;;;;;;;17.37;49.90;100905.75;5027602;28;20025;-74
2021/05/23 09:46:10;;;;;;;4.63;0.85;;;;;;;17.38;48.14;100915.59;5030610;28;20033;-74
2021/05/23 09:48:36;;;;;;;7.93;1.40;;;;;;;17.41;49.19;100923.44;5030584;28;20083;-73
2021/05/23 09:51:13;;;;;;;9.32;1.10;;;;;;;16.85;49.50;100929.31;5045512;28;20094;-74
2021/05/23 09:53:42;;;;;;;4.18;0.82;;;;;;;16.44;49.86;100929.31;5048680;28;20052;-74
2021/05/23 09:56:10;;;;;;;2.22;1.08;;;;;;;16.12;53.16;100927.47;5048041;28;20036;-74
2021/05/23 09:58:47;;;;;;;7.50;1.75;;;;;;;15.89;53.24;100925.84;5029911;28;20033;-71
2021/05/23 10:01:33;;;;;;;8.05;1.63;;;;;;;15.56;52.73;100934.03;5046623;28;20033;-73
2021/05/23 10:04:00;;;;;;;8.88;1.25;;;;;;;15.28;52.37;100933.53;5030651;28;20032;-75
2021/05/23 10:06:31;;;;;;;4.82;1.20;;;;;;;15.06;53.46;100941.63;5046458;28;20520;-74
2021/05/23 10:08:57;;;;;;;8.30;1.27;;;;;;;15.14;55.68;100947.28;5045825;28;20025;-73
2021/05/23 10:11:24;;;;;;;4.28;1.33;;;;;;;15.46;54.40;100949.25;5030000;28;20028;-73
2021/05/23 10:13:50;;;;;;;8.43;1.48;;;;;;;15.77;54.54;100949.38;5047357;28;20033;-72
2021/05/23 10:16:16;;;;;;;12.98;1.40;;;;;;;15.57;54.06;100960.09;5033117;28;20075;-74
2021/05/23 10:18:44;;;;;;;7.43;1.15;;;;;;;15.37;55.50;100950.84;5012506;28;20036;-74
2021/05/23 10:21:10;;;;;;;7.82;1.38;;;;;;;15.84;55.35;100947.03;5031851;28;20079;-73
2021/05/23 10:23:38;;;;;;;4.47;0.88;;;;;;;16.56;55.96;100947.22;5046866;28;20508;-73
2021/05/23 10:26:10;;;;;;;7.07;1.20;;;;;;;16.95;53.84;100945.66;5046493;28;20032;-73
2021/05/23 10:28:39;;;;;;;2.25;0.80;;;;;;;17.22;51.53;100950.53;5028991;28;20040;-72
2021/05/23 10:31:05;;;;;;;3.65;1.20;;;;;;;17.59;50.70;100948.94;5047882;28;20528;-73
2021/05/23 10:33:31;;;;;;;4.10;0.85;;;;;;;17.56;50.83;100953.81;5046355;28;20060;-73
2021/05/23 10:35:56;;;;;;;8.85;2.05;;;;;;;17.12;47.60;100941.47;5047093;28;20106;-73
2021/05/23 10:38:23;;;;;;;6.30;1.65;;;;;;;17.04;47.43;100963.84;5046551;28;20120;-74
2021/05/23 10:41:00;;;;;;;6.28;1.65;;;;;;;16.79;46.28;100948.84;5031275;28;20071;-73
2021/05/23 10:43:36;;;;;;;5.55;1.15;;;;;;;17.27;45.86;100938.28;5049004;28;20114;-72
2021/05/23 10:46:06;;;;;;;6.78;1.13;;;;;;;17.47;45.49;100958.19;5030638;28;20124;-75
2021/05/23 10:48:32;;;;;;;4.15;1.33;;;;;;;17.58;45.94;100947.25;5042793;28;20029;-75
2021/05/23 10:50:58;;;;;;;6.15;1.30;;;;;;;17.97;45.24;100960.94;5028168;28;20055;-74
2021/05/23 10:53:34;;;;;;;8.20;1.20;;;;;;;17.42;43.76;100954.16;5028606;28;20036;-73
2021/05/23 10:55:59;;;;;;;6.63;0.90;;;;;;;17.26;44.75;100952.84;5029796;28;20083;-74
2021/05/23 10:58:28;;;;;;;5.32;1.17;;;;;;;17.19;44.35;100956.22;5044786;28;20029;-74
2021/05/23 11:00:56;;;;;;;6.72;0.90;;;;;;;17.16;44.01;100959.19;5012794;28;20039;-73
2021/05/23 11:03:25;;;;;;;7.65;1.80;;;;;;;17.18;43.74;100962.63;5045972;28;20116;-73
2021/05/23 11:06:04;;;;;;;2.40;0.60;;;;;;;17.58;42.76;100958.09;5030754;28;20095;-73
2021/05/23 11:08:31;;;;;;;4.68;0.95;;;;;;;17.73;43.90;100954.03;5028006;28;20389;-73
2021/05/23 11:10:57;;;;;;;1.42;0.77;;;;;;;17.71;44.10;100968.75;5028979;28;20201;-72
2021/05/23 11:13:26;;;;;;;5.70;0.75;;;;;;;17.14;41.95;100955.75;5047419;28;20040;-74
2021/05/23 11:15:52;;;;;;;7.28;2.28;;;;;;;17.06;42.13;100963.72;5041729;28;20371;-74
2021/05/23 11:18:23;;;;;;;3.85;1.02;;;;;;;16.83;41.61;100960.28;5030588;28;20048;-74